sensor_id;sensor_type;location;lat;lon;timestamp;temperature;humidity
1259;DHT22;619;51.472;6.628;2022-10-31T00:01:00;18.20;99.90
1259;DHT22;619;51.472;6.628;2022-10-31T00:03:26;18.50;99.90
1259;DHT22;619;51.472;6.628;2022-10-31T00:05:52;18.80;99.90
1259;DHT22;619;51.472;6.628;2022-10-31T00:08:22;19.00;99.90
1259;DHT22;619;51.472;6.628;2022-10-31T00:10:50;19.30;99.90
1259;DHT22;619;51.472;6.628;2022-10-31T00:13:15;19.50;99.20
1259;DHT22;619;51.472;6.628;2022-10-31T00:15:41;19.70;98.60
1259;DHT22;619;51.472;6.628;2022-10-31T00:18:08;19.80;98.00
1259;DHT22;619;51.472;6.628;2022-10-31T00:20:36;19.90;97.50
1259;DHT22;619;51.472;6.628;2022-10-31T00:23:03;20.10;97.00
1259;DHT22;619;51.472;6.628;2022-10-31T00:25:32;20.20;96.60
1259;DHT22;619;51.472;6.628;2022-10-31T00:27:58;20.30;96.20
1259;DHT22;619;51.472;6.628;2022-10-31T00:30:26;20.40;95.90
1259;DHT22;619;51.472;6.628;2022-10-31T00:32:52;20.40;95.60
1259;DHT22;619;51.472;6.628;2022-10-31T00:35:17;20.50;95.30
1259;DHT22;619;51.472;6.628;2022-10-31T00:37:43;20.60;95.00
1259;DHT22;619;51.472;6.628;2022-10-31T00:40:09;20.70;94.80
1259;DHT22;619;51.472;6.628;2022-10-31T00:42:35;20.70;94.60
1259;DHT22;619;51.472;6.628;2022-10-31T00:45:03;20.80;94.40
1259;DHT22;619;51.472;6.628;2022-10-31T00:47:30;20.80;94.20
1259;DHT22;619;51.472;6.628;2022-10-31T00:49:56;20.80;94.10
1259;DHT22;619;51.472;6.628;2022-10-31T00:52:22;20.90;94.00
1259;DHT22;619;51.472;6.628;2022-10-31T00:54:47;20.90;93.80
1259;DHT22;619;51.472;6.628;2022-10-31T00:57:13;20.90;93.70
1259;DHT22;619;51.472;6.628;2022-10-31T00:59:41;21.00;93.50
1259;DHT22;619;51.472;6.628;2022-10-31T01:02:06;21.00;93.40
1259;DHT22;619;51.472;6.628;2022-10-31T01:04:32;21.00;93.20
1259;DHT22;619;51.472;6.628;2022-10-31T01:07:00;21.00;93.00
1259;DHT22;619;51.472;6.628;2022-10-31T01:09:28;21.00;92.90
1259;DHT22;619;51.472;6.628;2022-10-31T01:11:55;21.00;92.70
1259;DHT22;619;51.472;6.628;2022-10-31T01:14:23;21.00;92.50
1259;DHT22;619;51.472;6.628;2022-10-31T01:16:51;21.00;92.40
1259;DHT22;619;51.472;6.628;2022-10-31T01:19:16;20.90;92.30
1259;DHT22;619;51.472;6.628;2022-10-31T01:21:42;20.90;92.20
1259;DHT22;619;51.472;6.628;2022-10-31T01:24:08;20.80;92.10
1259;DHT22;619;51.472;6.628;2022-10-31T01:26:36;20.80;92.00
1259;DHT22;619;51.472;6.628;2022-10-31T01:29:04;20.80;92.00
1259;DHT22;619;51.472;6.628;2022-10-31T01:31:34;20.80;91.90
1259;DHT22;619;51.472;6.628;2022-10-31T01:34:00;20.70;91.80
1259;DHT22;619;51.472;6.628;2022-10-31T01:36:34;20.70;91.80
1259;DHT22;619;51.472;6.628;2022-10-31T01:39:14;20.60;91.70
1259;DHT22;619;51.472;6.628;2022-10-31T01:41:42;20.60;92.00
1259;DHT22;619;51.472;6.628;2022-10-31T01:46:56;20.50;91.40
1259;DHT22;619;51.472;6.628;2022-10-31T01:55:04;20.40;91.20
1259;DHT22;619;51.472;6.628;2022-10-31T01:57:37;20.30;91.10
1259;DHT22;619;51.472;6.628;2022-10-31T02:00:07;20.20;91.00
1259;DHT22;619;51.472;6.628;2022-10-31T02:02:36;20.20;91.00
1259;DHT22;619;51.472;6.628;2022-10-31T02:05:07;20.20;91.00
1259;DHT22;619;51.472;6.628;2022-10-31T02:07:42;20.10;91.00
1259;DHT22;619;51.472;6.628;2022-10-31T02:10:11;20.00;91.00
1259;DHT22;619;51.472;6.628;2022-10-31T02:12:39;20.00;91.00
1259;DHT22;619;51.472;6.628;2022-10-31T02:15:09;20.00;91.10
1259;DHT22;619;51.472;6.628;2022-10-31T02:17:37;19.90;91.10
1259;DHT22;619;51.472;6.628;2022-10-31T02:20:05;19.90;91.10
1259;DHT22;619;51.472;6.628;2022-10-31T02:22:50;19.90;91.10
1259;DHT22;619;51.472;6.628;2022-10-31T02:25:42;19.90;91.10
1259;DHT22;619;51.472;6.628;2022-10-31T02:33:52;19.80;90.90
1259;DHT22;619;51.472;6.628;2022-10-31T02:39:06;19.70;90.80
1259;DHT22;619;51.472;6.628;2022-10-31T02:47:11;19.60;90.80
1259;DHT22;619;51.472;6.628;2022-10-31T02:49:48;19.60;90.90
1259;DHT22;619;51.472;6.628;2022-10-31T02:52:23;19.60;90.90
1259;DHT22;619;51.472;6.628;2022-10-31T02:54:51;19.60;91.00
1259;DHT22;619;51.472;6.628;2022-10-31T02:57:27;19.50;90.90
1259;DHT22;619;51.472;6.628;2022-10-31T03:00:03;19.60;91.00
1259;DHT22;619;51.472;6.628;2022-10-31T03:08:35;19.50;90.90
1259;DHT22;619;51.472;6.628;2022-10-31T03:11:06;19.50;90.90
1259;DHT22;619;51.472;6.628;2022-10-31T03:14:17;19.50;90.80
1259;DHT22;619;51.472;6.628;2022-10-31T03:19:16;19.50;90.80
1259;DHT22;619;51.472;6.628;2022-10-31T03:22:04;19.40;90.70
1259;DHT22;619;51.472;6.628;2022-10-31T03:24:37;19.40;91.10
1259;DHT22;619;51.472;6.628;2022-10-31T03:27:10;19.40;90.70
1259;DHT22;619;51.472;6.628;2022-10-31T03:29:37;19.40;90.60
1259;DHT22;619;51.472;6.628;2022-10-31T03:32:08;19.40;90.60
1259;DHT22;619;51.472;6.628;2022-10-31T03:34:37;19.30;90.50
1259;DHT22;619;51.472;6.628;2022-10-31T03:37:08;19.30;90.50
1259;DHT22;619;51.472;6.628;2022-10-31T03:39:36;19.30;90.60
1259;DHT22;619;51.472;6.628;2022-10-31T03:42:11;19.30;90.60
1259;DHT22;619;51.472;6.628;2022-10-31T03:44:40;19.20;90.50
1259;DHT22;619;51.472;6.628;2022-10-31T03:47:08;19.20;90.50
1259;DHT22;619;51.472;6.628;2022-10-31T03:49:34;19.20;90.40
1259;DHT22;619;51.472;6.628;2022-10-31T03:52:28;19.20;90.50
1259;DHT22;619;51.472;6.628;2022-10-31T03:55:04;19.10;90.60
1259;DHT22;619;51.472;6.628;2022-10-31T04:00:09;19.10;90.80
1259;DHT22;619;51.472;6.628;2022-10-31T04:02:40;19.10;90.80
1259;DHT22;619;51.472;6.628;2022-10-31T04:05:08;19.10;90.80
1259;DHT22;619;51.472;6.628;2022-10-31T04:07:39;19.10;90.70
1259;DHT22;619;51.472;6.628;2022-10-31T04:10:11;19.10;90.70
1259;DHT22;619;51.472;6.628;2022-10-31T04:12:38;19.00;90.60
1259;DHT22;619;51.472;6.628;2022-10-31T04:15:10;19.00;90.50
1259;DHT22;619;51.472;6.628;2022-10-31T04:17:39;19.00;90.60
1259;DHT22;619;51.472;6.628;2022-10-31T04:20:09;19.00;90.60
1259;DHT22;619;51.472;6.628;2022-10-31T04:22:37;19.00;90.60
1259;DHT22;619;51.472;6.628;2022-10-31T04:25:02;19.00;90.60
1259;DHT22;619;51.472;6.628;2022-10-31T04:27:30;19.00;90.60
1259;DHT22;619;51.472;6.628;2022-10-31T04:29:56;19.00;90.60
1259;DHT22;619;51.472;6.628;2022-10-31T04:32:24;19.00;90.70
1259;DHT22;619;51.472;6.628;2022-10-31T04:34:52;19.00;90.70
1259;DHT22;619;51.472;6.628;2022-10-31T04:37:18;19.00;90.80
1259;DHT22;619;51.472;6.628;2022-10-31T04:39:43;19.00;90.90
1259;DHT22;619;51.472;6.628;2022-10-31T04:42:11;19.10;91.10
1259;DHT22;619;51.472;6.628;2022-10-31T04:44:37;19.10;91.10
1259;DHT22;619;51.472;6.628;2022-10-31T04:47:04;19.10;91.10
1259;DHT22;619;51.472;6.628;2022-10-31T04:49:30;19.20;91.10
1259;DHT22;619;51.472;6.628;2022-10-31T04:51:56;19.20;91.10
1259;DHT22;619;51.472;6.628;2022-10-31T04:54:21;19.30;91.20
1259;DHT22;619;51.472;6.628;2022-10-31T04:56:47;19.30;91.10
1259;DHT22;619;51.472;6.628;2022-10-31T04:59:12;19.40;91.20
1259;DHT22;619;51.472;6.628;2022-10-31T05:01:38;19.40;91.10
1259;DHT22;619;51.472;6.628;2022-10-31T05:04:03;19.50;91.10
1259;DHT22;619;51.472;6.628;2022-10-31T05:06:29;19.50;91.00
1259;DHT22;619;51.472;6.628;2022-10-31T05:08:54;19.50;90.90
1259;DHT22;619;51.472;6.628;2022-10-31T05:11:20;19.50;90.80
1259;DHT22;619;51.472;6.628;2022-10-31T05:13:48;19.50;90.60
1259;DHT22;619;51.472;6.628;2022-10-31T05:16:13;19.50;90.50
1259;DHT22;619;51.472;6.628;2022-10-31T05:18:39;19.50;90.50
1259;DHT22;619;51.472;6.628;2022-10-31T05:21:07;19.40;90.40
1259;DHT22;619;51.472;6.628;2022-10-31T05:23:32;19.40;90.30
1259;DHT22;619;51.472;6.628;2022-10-31T05:26:01;19.30;90.30
1259;DHT22;619;51.472;6.628;2022-10-31T05:28:26;19.30;90.30
1259;DHT22;619;51.472;6.628;2022-10-31T05:30:52;19.30;90.40
1259;DHT22;619;51.472;6.628;2022-10-31T05:33:17;19.20;90.40
1259;DHT22;619;51.472;6.628;2022-10-31T05:35:43;19.20;90.40
1259;DHT22;619;51.472;6.628;2022-10-31T05:38:08;19.20;90.40
1259;DHT22;619;51.472;6.628;2022-10-31T05:40:34;19.10;90.30
1259;DHT22;619;51.472;6.628;2022-10-31T05:43:00;19.10;90.30
1259;DHT22;619;51.472;6.628;2022-10-31T05:45:25;19.10;90.30
1259;DHT22;619;51.472;6.628;2022-10-31T05:50:20;19.00;90.20
1259;DHT22;619;51.472;6.628;2022-10-31T05:52:46;19.00;90.30
1259;DHT22;619;51.472;6.628;2022-10-31T05:55:12;18.90;90.30
1259;DHT22;619;51.472;6.628;2022-10-31T05:57:42;18.90;90.30
1259;DHT22;619;51.472;6.628;2022-10-31T06:00:08;18.90;90.20
1259;DHT22;619;51.472;6.628;2022-10-31T06:02:34;18.80;90.10
1259;DHT22;619;51.472;6.628;2022-10-31T06:05:00;18.80;90.10
1259;DHT22;619;51.472;6.628;2022-10-31T06:07:26;18.80;90.20
1259;DHT22;619;51.472;6.628;2022-10-31T06:09:52;18.70;90.60
1259;DHT22;619;51.472;6.628;2022-10-31T06:12:20;18.70;90.40
1259;DHT22;619;51.472;6.628;2022-10-31T06:14:46;18.70;90.40
1259;DHT22;619;51.472;6.628;2022-10-31T06:17:14;18.70;90.40
1259;DHT22;619;51.472;6.628;2022-10-31T06:19:39;18.70;90.30
1259;DHT22;619;51.472;6.628;2022-10-31T06:22:07;18.70;90.30
1259;DHT22;619;51.472;6.628;2022-10-31T06:24:33;18.70;90.20
1259;DHT22;619;51.472;6.628;2022-10-31T06:26:59;18.60;90.10
1259;DHT22;619;51.472;6.628;2022-10-31T06:29:24;18.60;90.10
1259;DHT22;619;51.472;6.628;2022-10-31T06:31:53;18.60;90.20
1259;DHT22;619;51.472;6.628;2022-10-31T06:34:18;18.60;90.40
1259;DHT22;619;51.472;6.628;2022-10-31T06:36:46;18.60;90.30
1259;DHT22;619;51.472;6.628;2022-10-31T06:39:16;18.50;90.30
1259;DHT22;619;51.472;6.628;2022-10-31T06:41:44;18.50;90.40
1259;DHT22;619;51.472;6.628;2022-10-31T06:44:12;18.60;90.40
1259;DHT22;619;51.472;6.628;2022-10-31T06:46:39;18.50;90.40
1259;DHT22;619;51.472;6.628;2022-10-31T06:49:08;18.50;90.50
1259;DHT22;619;51.472;6.628;2022-10-31T06:51:34;18.50;90.50
1259;DHT22;619;51.472;6.628;2022-10-31T06:54:01;18.50;90.40
1259;DHT22;619;51.472;6.628;2022-10-31T06:56:27;18.60;90.50
1259;DHT22;619;51.472;6.628;2022-10-31T06:58:55;18.60;90.50
1259;DHT22;619;51.472;6.628;2022-10-31T07:01:23;18.60;90.50
1259;DHT22;619;51.472;6.628;2022-10-31T07:03:51;18.60;90.50
1259;DHT22;619;51.472;6.628;2022-10-31T07:06:19;18.60;90.60
1259;DHT22;619;51.472;6.628;2022-10-31T07:08:45;18.70;90.60
1259;DHT22;619;51.472;6.628;2022-10-31T07:11:12;18.70;90.60
1259;DHT22;619;51.472;6.628;2022-10-31T07:13:40;18.70;90.60
1259;DHT22;619;51.472;6.628;2022-10-31T07:16:07;18.70;90.50
1259;DHT22;619;51.472;6.628;2022-10-31T07:18:33;18.80;90.60
1259;DHT22;619;51.472;6.628;2022-10-31T07:20:59;18.80;90.50
1259;DHT22;619;51.472;6.628;2022-10-31T07:23:24;18.80;90.50
1259;DHT22;619;51.472;6.628;2022-10-31T07:25:55;18.90;90.60
1259;DHT22;619;51.472;6.628;2022-10-31T07:28:24;18.90;90.70
1259;DHT22;619;51.472;6.628;2022-10-31T07:30:54;18.90;90.60
1259;DHT22;619;51.472;6.628;2022-10-31T07:33:21;18.90;90.60
1259;DHT22;619;51.472;6.628;2022-10-31T07:35:46;19.00;90.60
1259;DHT22;619;51.472;6.628;2022-10-31T07:38:13;19.00;90.60
1259;DHT22;619;51.472;6.628;2022-10-31T07:40:39;19.00;90.60
1259;DHT22;619;51.472;6.628;2022-10-31T07:43:08;19.10;90.60
1259;DHT22;619;51.472;6.628;2022-10-31T07:45:35;19.10;90.70
1259;DHT22;619;51.472;6.628;2022-10-31T07:48:01;19.20;90.70
1259;DHT22;619;51.472;6.628;2022-10-31T07:50:30;19.30;90.80
1259;DHT22;619;51.472;6.628;2022-10-31T07:53:11;19.30;90.80
1259;DHT22;619;51.472;6.628;2022-10-31T07:55:39;19.40;90.90
1259;DHT22;619;51.472;6.628;2022-10-31T07:58:16;19.50;90.90
1259;DHT22;619;51.472;6.628;2022-10-31T08:00:44;19.60;90.90
1259;DHT22;619;51.472;6.628;2022-10-31T08:03:15;19.70;90.80
1259;DHT22;619;51.472;6.628;2022-10-31T08:05:41;19.70;90.80
1259;DHT22;619;51.472;6.628;2022-10-31T08:08:07;19.80;90.70
1259;DHT22;619;51.472;6.628;2022-10-31T08:10:34;19.90;90.80
1259;DHT22;619;51.472;6.628;2022-10-31T08:13:11;20.00;90.80
1259;DHT22;619;51.472;6.628;2022-10-31T08:15:41;20.10;90.70
1259;DHT22;619;51.472;6.628;2022-10-31T08:18:12;20.20;90.60
1259;DHT22;619;51.472;6.628;2022-10-31T08:20:41;20.30;90.60
1259;DHT22;619;51.472;6.628;2022-10-31T08:23:08;20.50;90.60
1259;DHT22;619;51.472;6.628;2022-10-31T08:25:37;20.60;90.60
1259;DHT22;619;51.472;6.628;2022-10-31T08:28:05;20.60;90.50
1259;DHT22;619;51.472;6.628;2022-10-31T08:30:33;20.70;90.50
1259;DHT22;619;51.472;6.628;2022-10-31T08:33:13;20.80;90.50
1259;DHT22;619;51.472;6.628;2022-10-31T08:35:39;20.80;90.30
1259;DHT22;619;51.472;6.628;2022-10-31T08:38:08;20.90;90.30
1259;DHT22;619;51.472;6.628;2022-10-31T08:40:34;21.00;90.30
1259;DHT22;619;51.472;6.628;2022-10-31T08:43:21;21.00;90.20
1259;DHT22;619;51.472;6.628;2022-10-31T08:45:51;21.10;90.20
1259;DHT22;619;51.472;6.628;2022-10-31T08:48:20;21.20;90.10
1259;DHT22;619;51.472;6.628;2022-10-31T08:50:46;21.30;90.00
1259;DHT22;619;51.472;6.628;2022-10-31T08:53:16;21.40;90.00
1259;DHT22;619;51.472;6.628;2022-10-31T08:55:46;21.50;90.00
1259;DHT22;619;51.472;6.628;2022-10-31T08:58:17;21.60;90.00
1259;DHT22;619;51.472;6.628;2022-10-31T09:00:44;21.70;90.00
1259;DHT22;619;51.472;6.628;2022-10-31T09:03:17;21.80;90.00
1259;DHT22;619;51.472;6.628;2022-10-31T09:05:45;22.00;89.70
1259;DHT22;619;51.472;6.628;2022-10-31T09:08:11;22.20;89.50
1259;DHT22;619;51.472;6.628;2022-10-31T09:10:38;22.30;89.00
1259;DHT22;619;51.472;6.628;2022-10-31T09:13:14;22.40;88.50
1259;DHT22;619;51.472;6.628;2022-10-31T09:15:42;22.60;88.10
1259;DHT22;619;51.472;6.628;2022-10-31T09:18:09;22.70;87.50
1259;DHT22;619;51.472;6.628;2022-10-31T09:20:36;22.80;86.80
1259;DHT22;619;51.472;6.628;2022-10-31T09:23:09;22.80;86.30
1259;DHT22;619;51.472;6.628;2022-10-31T09:25:35;22.80;86.10
1259;DHT22;619;51.472;6.628;2022-10-31T09:28:08;22.80;85.80
1259;DHT22;619;51.472;6.628;2022-10-31T09:30:37;22.90;85.80
1259;DHT22;619;51.472;6.628;2022-10-31T09:33:13;22.90;85.70
1259;DHT22;619;51.472;6.628;2022-10-31T09:35:40;22.90;85.90
1259;DHT22;619;51.472;6.628;2022-10-31T09:38:13;22.90;85.90
1259;DHT22;619;51.472;6.628;2022-10-31T09:51:48;23.30;85.00
1259;DHT22;619;51.472;6.628;2022-10-31T09:54:20;23.30;84.80
1259;DHT22;619;51.472;6.628;2022-10-31T09:56:49;23.40;85.00
1259;DHT22;619;51.472;6.628;2022-10-31T09:59:30;23.40;85.10
1259;DHT22;619;51.472;6.628;2022-10-31T10:02:13;23.40;84.90
1259;DHT22;619;51.472;6.628;2022-10-31T10:09:46;23.60;84.30
1259;DHT22;619;51.472;6.628;2022-10-31T10:12:28;23.60;84.00
1259;DHT22;619;51.472;6.628;2022-10-31T10:15:16;23.70;83.80
1259;DHT22;619;51.472;6.628;2022-10-31T10:20:43;24.00;82.90
1259;DHT22;619;51.472;6.628;2022-10-31T10:26:13;24.30;82.20
1259;DHT22;619;51.472;6.628;2022-10-31T10:28:44;24.50;81.60
1259;DHT22;619;51.472;6.628;2022-10-31T10:31:30;24.60;81.20
1259;DHT22;619;51.472;6.628;2022-10-31T10:36:36;24.90;79.80
1259;DHT22;619;51.472;6.628;2022-10-31T10:39:15;24.90;79.50
1259;DHT22;619;51.472;6.628;2022-10-31T10:41:49;25.00;79.30
1259;DHT22;619;51.472;6.628;2022-10-31T10:44:37;25.10;79.50
1259;DHT22;619;51.472;6.628;2022-10-31T10:47:25;25.20;79.30
1259;DHT22;619;51.472;6.628;2022-10-31T10:50:31;25.40;78.60
1259;DHT22;619;51.472;6.628;2022-10-31T10:58:25;25.50;77.30
1259;DHT22;619;51.472;6.628;2022-10-31T11:03:23;25.50;76.80
1259;DHT22;619;51.472;6.628;2022-10-31T11:08:36;25.60;77.70
1259;DHT22;619;51.472;6.628;2022-10-31T11:13:31;25.50;77.40
1259;DHT22;619;51.472;6.628;2022-10-31T11:18:31;25.40;77.20
1259;DHT22;619;51.472;6.628;2022-10-31T11:21:02;25.40;77.40
1259;DHT22;619;51.472;6.628;2022-10-31T11:23:29;25.40;77.70
1259;DHT22;619;51.472;6.628;2022-10-31T11:25:57;25.40;78.00
1259;DHT22;619;51.472;6.628;2022-10-31T11:28:23;25.40;77.80
1259;DHT22;619;51.472;6.628;2022-10-31T11:30:54;25.30;78.00
1259;DHT22;619;51.472;6.628;2022-10-31T11:35:55;25.40;78.00
1259;DHT22;619;51.472;6.628;2022-10-31T11:38:28;25.50;78.00
1259;DHT22;619;51.472;6.628;2022-10-31T11:41:16;25.60;77.80
1259;DHT22;619;51.472;6.628;2022-10-31T11:44:00;25.70;77.60
1259;DHT22;619;51.472;6.628;2022-10-31T11:48:55;25.90;77.00
1259;DHT22;619;51.472;6.628;2022-10-31T11:51:28;26.00;76.90
1259;DHT22;619;51.472;6.628;2022-10-31T11:53:57;26.10;77.00
1259;DHT22;619;51.472;6.628;2022-10-31T11:56:23;26.20;76.60
1259;DHT22;619;51.472;6.628;2022-10-31T11:58:56;26.30;76.00
1259;DHT22;619;51.472;6.628;2022-10-31T12:01:26;26.50;76.00
1259;DHT22;619;51.472;6.628;2022-10-31T12:06:38;26.70;75.20
1259;DHT22;619;51.472;6.628;2022-10-31T12:09:44;26.70;74.50
1259;DHT22;619;51.472;6.628;2022-10-31T12:17:35;27.00;74.00
1259;DHT22;619;51.472;6.628;2022-10-31T12:23:10;27.20;73.20
1259;DHT22;619;51.472;6.628;2022-10-31T12:25:43;27.20;73.10
1259;DHT22;619;51.472;6.628;2022-10-31T12:31:24;27.20;73.00
1259;DHT22;619;51.472;6.628;2022-10-31T12:34:04;27.20;72.80
1259;DHT22;619;51.472;6.628;2022-10-31T12:47:44;27.00;73.10
1259;DHT22;619;51.472;6.628;2022-10-31T12:58:29;27.50;71.20
1259;DHT22;619;51.472;6.628;2022-10-31T13:01:16;27.60;71.00
1259;DHT22;619;51.472;6.628;2022-10-31T13:03:55;27.80;69.20
1259;DHT22;619;51.472;6.628;2022-10-31T13:06:29;28.00;68.40
1259;DHT22;619;51.472;6.628;2022-10-31T13:09:01;28.50;66.50
1259;DHT22;619;51.472;6.628;2022-10-31T13:11:29;28.10;66.80
1259;DHT22;619;51.472;6.628;2022-10-31T13:14:05;27.60;67.90
1259;DHT22;619;51.472;6.628;2022-10-31T13:16:39;27.20;69.20
1259;DHT22;619;51.472;6.628;2022-10-31T13:22:00;26.50;70.90
1259;DHT22;619;51.472;6.628;2022-10-31T13:24:58;26.30;71.80
1259;DHT22;619;51.472;6.628;2022-10-31T13:27:30;26.00;71.90
1259;DHT22;619;51.472;6.628;2022-10-31T13:33:00;25.70;72.60
1259;DHT22;619;51.472;6.628;2022-10-31T13:38:51;25.40;72.60
1259;DHT22;619;51.472;6.628;2022-10-31T13:46:42;25.20;74.00
1259;DHT22;619;51.472;6.628;2022-10-31T13:49:40;25.20;74.00
1259;DHT22;619;51.472;6.628;2022-10-31T13:54:48;25.20;74.60
1259;DHT22;619;51.472;6.628;2022-10-31T13:57:37;25.20;75.30
1259;DHT22;619;51.472;6.628;2022-10-31T14:02:48;25.20;75.60
1259;DHT22;619;51.472;6.628;2022-10-31T14:05:31;25.20;75.10
1259;DHT22;619;51.472;6.628;2022-10-31T14:08:01;25.20;75.30
1259;DHT22;619;51.472;6.628;2022-10-31T14:10:36;25.10;75.30
1259;DHT22;619;51.472;6.628;2022-10-31T14:13:15;25.10;75.00
1259;DHT22;619;51.472;6.628;2022-10-31T14:15:52;25.10;74.00
1259;DHT22;619;51.472;6.628;2022-10-31T14:18:31;25.00;73.50
1259;DHT22;619;51.472;6.628;2022-10-31T14:20:57;25.00;73.00
1259;DHT22;619;51.472;6.628;2022-10-31T14:23:38;25.10;73.00
1259;DHT22;619;51.472;6.628;2022-10-31T14:34:21;25.00;71.40
1259;DHT22;619;51.472;6.628;2022-10-31T14:50:58;24.80;70.70
1259;DHT22;619;51.472;6.628;2022-10-31T14:53:40;24.80;71.00
1259;DHT22;619;51.472;6.628;2022-10-31T14:56:10;24.90;70.90
1259;DHT22;619;51.472;6.628;2022-10-31T14:58:42;24.90;70.90
1259;DHT22;619;51.472;6.628;2022-10-31T15:01:28;24.90;70.70
1259;DHT22;619;51.472;6.628;2022-10-31T15:04:04;25.00;70.50
1259;DHT22;619;51.472;6.628;2022-10-31T15:06:38;25.00;70.40
1259;DHT22;619;51.472;6.628;2022-10-31T15:09:05;25.00;70.30
1259;DHT22;619;51.472;6.628;2022-10-31T15:11:45;24.90;70.00
1259;DHT22;619;51.472;6.628;2022-10-31T15:14:22;24.90;69.80
1259;DHT22;619;51.472;6.628;2022-10-31T15:16:48;24.90;69.90
1259;DHT22;619;51.472;6.628;2022-10-31T15:19:20;24.90;69.90
1259;DHT22;619;51.472;6.628;2022-10-31T15:21:49;24.90;70.10
1259;DHT22;619;51.472;6.628;2022-10-31T15:24:16;24.80;70.00
1259;DHT22;619;51.472;6.628;2022-10-31T15:26:46;24.80;70.10
1259;DHT22;619;51.472;6.628;2022-10-31T15:29:17;24.80;70.30
1259;DHT22;619;51.472;6.628;2022-10-31T15:32:17;24.70;70.40
1259;DHT22;619;51.472;6.628;2022-10-31T15:34:44;24.60;70.70
1259;DHT22;619;51.472;6.628;2022-10-31T15:37:17;24.50;70.70
1259;DHT22;619;51.472;6.628;2022-10-31T15:39:45;24.50;70.90
1259;DHT22;619;51.472;6.628;2022-10-31T15:42:40;24.40;71.00
1259;DHT22;619;51.472;6.628;2022-10-31T15:47:48;24.30;71.50
1259;DHT22;619;51.472;6.628;2022-10-31T15:52:50;24.20;71.90
1259;DHT22;619;51.472;6.628;2022-10-31T15:55:21;24.10;71.80
1259;DHT22;619;51.472;6.628;2022-10-31T15:57:51;24.00;72.00
1259;DHT22;619;51.472;6.628;2022-10-31T16:00:24;23.90;72.00
1259;DHT22;619;51.472;6.628;2022-10-31T16:05:56;23.80;72.30
1259;DHT22;619;51.472;6.628;2022-10-31T16:13:34;23.60;73.00
1259;DHT22;619;51.472;6.628;2022-10-31T16:16:04;23.60;73.20
1259;DHT22;619;51.472;6.628;2022-10-31T16:18:37;23.60;73.30
1259;DHT22;619;51.472;6.628;2022-10-31T16:21:04;23.50;73.20
1259;DHT22;619;51.472;6.628;2022-10-31T16:23:31;23.50;73.20
1259;DHT22;619;51.472;6.628;2022-10-31T16:25:57;23.50;73.30
1259;DHT22;619;51.472;6.628;2022-10-31T16:28:25;23.50;73.60
1259;DHT22;619;51.472;6.628;2022-10-31T16:30:55;23.50;73.40
